sensor_id;sensor_type;location;lat;lon;timestamp;P1;durP1;ratioP1;P2;durP2;ratioP2
16543;SDS011;8384;47.996;7.786;2023-05-07T00:01:09;3.83;;;2.60;;
16543;SDS011;8384;47.996;7.786;2023-05-07T00:03:35;3.60;;;2.80;;
16543;SDS011;8384;47.996;7.786;2023-05-07T00:06:01;3.40;;;2.60;;
16543;SDS011;8384;47.996;7.786;2023-05-07T00:08:26;3.10;;;2.80;;
16543;SDS011;8384;47.996;7.786;2023-05-07T00:10:52;3.30;;;3.00;;
16543;SDS011;8384;47.996;7.786;2023-05-07T00:13:17;3.00;;;2.70;;
16543;SDS011;8384;47.996;7.786;2023-05-07T00:15:42;4.80;;;2.80;;
16543;SDS011;8384;47.996;7.786;2023-05-07T00:18:07;3.30;;;2.87;;
16543;SDS011;8384;47.996;7.786;2023-05-07T00:20:33;2.80;;;2.60;;
16543;SDS011;8384;47.996;7.786;2023-05-07T00:22:58;2.83;;;2.63;;
16543;SDS011;8384;47.996;7.786;2023-05-07T00:25:23;2.80;;;2.60;;
16543;SDS011;8384;47.996;7.786;2023-05-07T00:27:48;3.13;;;2.90;;
16543;SDS011;8384;47.996;7.786;2023-05-07T00:30:17;3.15;;;2.83;;
16543;SDS011;8384;47.996;7.786;2023-05-07T00:32:42;2.90;;;2.70;;
16543;SDS011;8384;47.996;7.786;2023-05-07T00:35:10;2.92;;;2.72;;
16543;SDS011;8384;47.996;7.786;2023-05-07T00:37:35;3.13;;;2.83;;
16543;SDS011;8384;47.996;7.786;2023-05-07T00:40:00;4.77;;;2.90;;
16543;SDS011;8384;47.996;7.786;2023-05-07T00:42:28;3.28;;;2.97;;
16543;SDS011;8384;47.996;7.786;2023-05-07T00:44:54;4.03;;;3.60;;
16543;SDS011;8384;47.996;7.786;2023-05-07T00:47:20;3.50;;;3.08;;
16543;SDS011;8384;47.996;7.786;2023-05-07T00:49:45;3.00;;;2.80;;
16543;SDS011;8384;47.996;7.786;2023-05-07T00:52:11;3.00;;;2.80;;
16543;SDS011;8384;47.996;7.786;2023-05-07T00:54:41;3.20;;;2.90;;
16543;SDS011;8384;47.996;7.786;2023-05-07T00:57:06;5.13;;;3.47;;
16543;SDS011;8384;47.996;7.786;2023-05-07T00:59:34;3.65;;;3.35;;
16543;SDS011;8384;47.996;7.786;2023-05-07T01:02:00;3.92;;;2.97;;
16543;SDS011;8384;47.996;7.786;2023-05-07T01:04:25;3.67;;;2.80;;
16543;SDS011;8384;47.996;7.786;2023-05-07T01:06:51;3.22;;;2.92;;
16543;SDS011;8384;47.996;7.786;2023-05-07T01:09:19;3.33;;;3.03;;
16543;SDS011;8384;47.996;7.786;2023-05-07T01:11:45;3.40;;;3.10;;
16543;SDS011;8384;47.996;7.786;2023-05-07T01:14:12;3.30;;;3.00;;
16543;SDS011;8384;47.996;7.786;2023-05-07T01:16:38;3.30;;;3.00;;
16543;SDS011;8384;47.996;7.786;2023-05-07T01:19:03;4.32;;;3.10;;
16543;SDS011;8384;47.996;7.786;2023-05-07T01:21:29;3.10;;;2.90;;
16543;SDS011;8384;47.996;7.786;2023-05-07T01:23:58;3.08;;;2.78;;
16543;SDS011;8384;47.996;7.786;2023-05-07T01:26:23;3.53;;;2.83;;
16543;SDS011;8384;47.996;7.786;2023-05-07T01:28:49;3.15;;;2.85;;
16543;SDS011;8384;47.996;7.786;2023-05-07T01:31:15;3.20;;;2.90;;
16543;SDS011;8384;47.996;7.786;2023-05-07T01:33:42;4.85;;;3.50;;
16543;SDS011;8384;47.996;7.786;2023-05-07T01:36:09;3.45;;;3.13;;
16543;SDS011;8384;47.996;7.786;2023-05-07T01:38:37;4.35;;;3.65;;
16543;SDS011;8384;47.996;7.786;2023-05-07T01:41:03;4.35;;;3.53;;
16543;SDS011;8384;47.996;7.786;2023-05-07T01:43:29;4.05;;;3.45;;
16543;SDS011;8384;47.996;7.786;2023-05-07T01:45:55;5.00;;;4.47;;
16543;SDS011;8384;47.996;7.786;2023-05-07T01:48:22;5.10;;;4.60;;
16543;SDS011;8384;47.996;7.786;2023-05-07T01:50:49;5.30;;;4.80;;
16543;SDS011;8384;47.996;7.786;2023-05-07T01:53:15;4.53;;;4.13;;
16543;SDS011;8384;47.996;7.786;2023-05-07T01:55:40;4.23;;;3.80;;
16543;SDS011;8384;47.996;7.786;2023-05-07T01:58:06;4.10;;;3.73;;
16543;SDS011;8384;47.996;7.786;2023-05-07T02:00:31;4.60;;;4.10;;
16543;SDS011;8384;47.996;7.786;2023-05-07T02:02:57;4.57;;;3.90;;
16543;SDS011;8384;47.996;7.786;2023-05-07T02:05:22;3.80;;;3.50;;
16543;SDS011;8384;47.996;7.786;2023-05-07T02:07:48;4.93;;;3.83;;
16543;SDS011;8384;47.996;7.786;2023-05-07T02:10:13;4.07;;;3.67;;
16543;SDS011;8384;47.996;7.786;2023-05-07T02:12:39;4.13;;;3.53;;
16543;SDS011;8384;47.996;7.786;2023-05-07T02:15:04;4.23;;;3.80;;
16543;SDS011;8384;47.996;7.786;2023-05-07T02:17:30;5.10;;;4.03;;
16543;SDS011;8384;47.996;7.786;2023-05-07T02:19:57;5.18;;;4.43;;
16543;SDS011;8384;47.996;7.786;2023-05-07T02:22:23;7.50;;;6.70;;
16543;SDS011;8384;47.996;7.786;2023-05-07T02:24:48;5.30;;;4.80;;
16543;SDS011;8384;47.996;7.786;2023-05-07T02:27:14;5.43;;;4.20;;
16543;SDS011;8384;47.996;7.786;2023-05-07T02:29:39;6.40;;;4.10;;
16543;SDS011;8384;47.996;7.786;2023-05-07T02:32:04;4.53;;;3.67;;
16543;SDS011;8384;47.996;7.786;2023-05-07T02:34:29;4.43;;;3.73;;
16543;SDS011;8384;47.996;7.786;2023-05-07T02:36:55;3.90;;;3.27;;
16543;SDS011;8384;47.996;7.786;2023-05-07T02:39:20;4.37;;;3.70;;
16543;SDS011;8384;47.996;7.786;2023-05-07T02:41:46;4.40;;;4.00;;
16543;SDS011;8384;47.996;7.786;2023-05-07T02:44:11;4.23;;;3.83;;
16543;SDS011;8384;47.996;7.786;2023-05-07T02:46:36;4.60;;;3.70;;
16543;SDS011;8384;47.996;7.786;2023-05-07T02:49:01;4.67;;;3.40;;
16543;SDS011;8384;47.996;7.786;2023-05-07T02:51:27;3.80;;;3.10;;
16543;SDS011;8384;47.996;7.786;2023-05-07T02:53:52;3.57;;;3.23;;
16543;SDS011;8384;47.996;7.786;2023-05-07T02:56:17;4.10;;;3.50;;
16543;SDS011;8384;47.996;7.786;2023-05-07T02:58:43;3.83;;;3.43;;
16543;SDS011;8384;47.996;7.786;2023-05-07T03:01:08;3.20;;;2.97;;
16543;SDS011;8384;47.996;7.786;2023-05-07T03:03:34;3.15;;;2.90;;
16543;SDS011;8384;47.996;7.786;2023-05-07T03:05:59;4.75;;;3.30;;
16543;SDS011;8384;47.996;7.786;2023-05-07T03:08:25;3.73;;;3.27;;
16543;SDS011;8384;47.996;7.786;2023-05-07T03:10:50;3.37;;;3.10;;
16543;SDS011;8384;47.996;7.786;2023-05-07T03:13:16;3.20;;;3.00;;
16543;SDS011;8384;47.996;7.786;2023-05-07T03:15:41;3.40;;;3.10;;
16543;SDS011;8384;47.996;7.786;2023-05-07T03:18:07;3.50;;;3.17;;
16543;SDS011;8384;47.996;7.786;2023-05-07T03:20:32;4.97;;;3.50;;
16543;SDS011;8384;47.996;7.786;2023-05-07T03:22:57;3.90;;;3.50;;
16543;SDS011;8384;47.996;7.786;2023-05-07T03:25:23;4.50;;;3.70;;
16543;SDS011;8384;47.996;7.786;2023-05-07T03:27:48;3.70;;;3.40;;
16543;SDS011;8384;47.996;7.786;2023-05-07T03:30:13;5.13;;;3.60;;
16543;SDS011;8384;47.996;7.786;2023-05-07T03:32:39;4.00;;;3.60;;
16543;SDS011;8384;47.996;7.786;2023-05-07T03:35:04;4.60;;;3.22;;
16543;SDS011;8384;47.996;7.786;2023-05-07T03:37:30;4.10;;;3.30;;
16543;SDS011;8384;47.996;7.786;2023-05-07T03:39:55;3.97;;;3.30;;
16543;SDS011;8384;47.996;7.786;2023-05-07T03:42:20;3.70;;;3.30;;
16543;SDS011;8384;47.996;7.786;2023-05-07T03:44:46;3.50;;;3.20;;
16543;SDS011;8384;47.996;7.786;2023-05-07T03:47:11;4.47;;;3.30;;
16543;SDS011;8384;47.996;7.786;2023-05-07T03:49:38;3.38;;;3.08;;
16543;SDS011;8384;47.996;7.786;2023-05-07T03:52:03;4.45;;;3.65;;
16543;SDS011;8384;47.996;7.786;2023-05-07T03:54:29;3.50;;;3.20;;
16543;SDS011;8384;47.996;7.786;2023-05-07T03:56:55;3.20;;;3.00;;
16543;SDS011;8384;47.996;7.786;2023-05-07T03:59:20;3.60;;;3.07;;
16543;SDS011;8384;47.996;7.786;2023-05-07T04:01:45;4.70;;;3.20;;
16543;SDS011;8384;47.996;7.786;2023-05-07T04:04:11;4.63;;;3.47;;
16543;SDS011;8384;47.996;7.786;2023-05-07T04:06:36;4.77;;;3.60;;
16543;SDS011;8384;47.996;7.786;2023-05-07T04:09:02;4.95;;;3.80;;
16543;SDS011;8384;47.996;7.786;2023-05-07T04:11:27;5.83;;;3.60;;
16543;SDS011;8384;47.996;7.786;2023-05-07T04:13:52;3.90;;;3.50;;
16543;SDS011;8384;47.996;7.786;2023-05-07T04:16:18;3.63;;;3.33;;
16543;SDS011;8384;47.996;7.786;2023-05-07T04:18:43;4.00;;;3.60;;
16543;SDS011;8384;47.996;7.786;2023-05-07T04:21:15;5.30;;;3.90;;
16543;SDS011;8384;47.996;7.786;2023-05-07T04:23:41;4.28;;;3.63;;
16543;SDS011;8384;47.996;7.786;2023-05-07T04:26:06;5.90;;;4.10;;
16543;SDS011;8384;47.996;7.786;2023-05-07T04:28:31;3.50;;;3.30;;
16543;SDS011;8384;47.996;7.786;2023-05-07T04:30:57;3.60;;;3.30;;
16543;SDS011;8384;47.996;7.786;2023-05-07T04:33:22;3.80;;;3.50;;
16543;SDS011;8384;47.996;7.786;2023-05-07T04:35:47;3.60;;;3.30;;
16543;SDS011;8384;47.996;7.786;2023-05-07T04:38:13;3.55;;;3.13;;
16543;SDS011;8384;47.996;7.786;2023-05-07T04:40:38;3.50;;;3.20;;
16543;SDS011;8384;47.996;7.786;2023-05-07T04:43:04;3.95;;;3.40;;
16543;SDS011;8384;47.996;7.786;2023-05-07T04:45:29;5.80;;;4.05;;
16543;SDS011;8384;47.996;7.786;2023-05-07T04:47:55;4.13;;;3.53;;
16543;SDS011;8384;47.996;7.786;2023-05-07T04:52:52;3.95;;;3.50;;
16543;SDS011;8384;47.996;7.786;2023-05-07T04:55:17;4.20;;;3.33;;
16543;SDS011;8384;47.996;7.786;2023-05-07T04:57:42;3.10;;;2.90;;
16543;SDS011;8384;47.996;7.786;2023-05-07T05:00:08;3.33;;;3.03;;
16543;SDS011;8384;47.996;7.786;2023-05-07T05:02:34;2.85;;;2.65;;
16543;SDS011;8384;47.996;7.786;2023-05-07T05:04:59;4.13;;;3.20;;
16543;SDS011;8384;47.996;7.786;2023-05-07T05:07:26;4.18;;;3.22;;
16543;SDS011;8384;47.996;7.786;2023-05-07T05:09:51;4.95;;;3.20;;
16543;SDS011;8384;47.996;7.786;2023-05-07T05:12:17;3.40;;;3.10;;
16543;SDS011;8384;47.996;7.786;2023-05-07T05:14:42;3.73;;;3.40;;
16543;SDS011;8384;47.996;7.786;2023-05-07T05:17:07;3.40;;;3.10;;
16543;SDS011;8384;47.996;7.786;2023-05-07T05:19:33;3.30;;;3.00;;
16543;SDS011;8384;47.996;7.786;2023-05-07T05:21:58;4.17;;;3.00;;
16543;SDS011;8384;47.996;7.786;2023-05-07T05:24:25;3.53;;;3.05;;
16543;SDS011;8384;47.996;7.786;2023-05-07T05:26:52;4.13;;;3.23;;
16543;SDS011;8384;47.996;7.786;2023-05-07T05:29:18;3.72;;;3.30;;
16543;SDS011;8384;47.996;7.786;2023-05-07T05:31:43;3.70;;;2.97;;
16543;SDS011;8384;47.996;7.786;2023-05-07T05:34:09;3.22;;;3.03;;
16543;SDS011;8384;47.996;7.786;2023-05-07T05:36:34;3.37;;;3.00;;
16543;SDS011;8384;47.996;7.786;2023-05-07T05:38:59;4.80;;;3.57;;
16543;SDS011;8384;47.996;7.786;2023-05-07T05:41:24;4.80;;;3.83;;
16543;SDS011;8384;47.996;7.786;2023-05-07T05:43:50;4.83;;;4.37;;
16543;SDS011;8384;47.996;7.786;2023-05-07T05:46:15;4.57;;;4.00;;
16543;SDS011;8384;47.996;7.786;2023-05-07T05:48:40;4.90;;;4.50;;
16543;SDS011;8384;47.996;7.786;2023-05-07T05:51:06;4.90;;;4.50;;
16543;SDS011;8384;47.996;7.786;2023-05-07T05:53:31;4.50;;;4.20;;
16543;SDS011;8384;47.996;7.786;2023-05-07T05:55:56;5.23;;;4.40;;
16543;SDS011;8384;47.996;7.786;2023-05-07T05:58:21;4.50;;;4.13;;
16543;SDS011;8384;47.996;7.786;2023-05-07T06:00:47;4.70;;;4.30;;
16543;SDS011;8384;47.996;7.786;2023-05-07T06:03:13;5.07;;;4.30;;
16543;SDS011;8384;47.996;7.786;2023-05-07T06:05:38;5.43;;;4.60;;
16543;SDS011;8384;47.996;7.786;2023-05-07T06:08:03;6.13;;;4.60;;
16543;SDS011;8384;47.996;7.786;2023-05-07T06:10:29;4.90;;;4.50;;
16543;SDS011;8384;47.996;7.786;2023-05-07T06:12:55;4.72;;;4.07;;
16543;SDS011;8384;47.996;7.786;2023-05-07T06:15:20;4.40;;;4.00;;
16543;SDS011;8384;47.996;7.786;2023-05-07T06:17:46;4.40;;;4.00;;
16543;SDS011;8384;47.996;7.786;2023-05-07T06:20:11;4.07;;;3.73;;
16543;SDS011;8384;47.996;7.786;2023-05-07T06:22:36;5.87;;;4.03;;
16543;SDS011;8384;47.996;7.786;2023-05-07T06:25:02;5.23;;;4.10;;
16543;SDS011;8384;47.996;7.786;2023-05-07T06:27:27;4.20;;;3.80;;
16543;SDS011;8384;47.996;7.786;2023-05-07T06:29:53;5.73;;;4.00;;
16543;SDS011;8384;47.996;7.786;2023-05-07T06:32:18;4.50;;;3.90;;
16543;SDS011;8384;47.996;7.786;2023-05-07T06:34:43;5.75;;;4.72;;
16543;SDS011;8384;47.996;7.786;2023-05-07T06:37:09;5.47;;;4.65;;
16543;SDS011;8384;47.996;7.786;2023-05-07T06:39:34;5.40;;;4.90;;
16543;SDS011;8384;47.996;7.786;2023-05-07T06:42:00;5.83;;;5.33;;
16543;SDS011;8384;47.996;7.786;2023-05-07T06:44:27;6.88;;;5.43;;
16543;SDS011;8384;47.996;7.786;2023-05-07T06:46:52;6.30;;;5.70;;
16543;SDS011;8384;47.996;7.786;2023-05-07T06:49:17;7.17;;;6.47;;
16543;SDS011;8384;47.996;7.786;2023-05-07T06:51:42;7.03;;;6.33;;
16543;SDS011;8384;47.996;7.786;2023-05-07T06:54:08;8.47;;;6.50;;
16543;SDS011;8384;47.996;7.786;2023-05-07T06:56:33;7.03;;;6.33;;
16543;SDS011;8384;47.996;7.786;2023-05-07T06:58:59;7.20;;;6.60;;
16543;SDS011;8384;47.996;7.786;2023-05-07T07:01:25;7.30;;;6.70;;
16543;SDS011;8384;47.996;7.786;2023-05-07T07:03:50;7.00;;;6.30;;
16543;SDS011;8384;47.996;7.786;2023-05-07T07:06:16;6.30;;;5.80;;
16543;SDS011;8384;47.996;7.786;2023-05-07T07:08:41;6.70;;;5.50;;
16543;SDS011;8384;47.996;7.786;2023-05-07T07:11:07;5.30;;;4.90;;
16543;SDS011;8384;47.996;7.786;2023-05-07T07:13:33;5.13;;;4.72;;
16543;SDS011;8384;47.996;7.786;2023-05-07T07:15:59;5.80;;;5.30;;
16543;SDS011;8384;47.996;7.786;2023-05-07T07:18:25;5.40;;;4.78;;
16543;SDS011;8384;47.996;7.786;2023-05-07T07:20:50;5.40;;;4.90;;
16543;SDS011;8384;47.996;7.786;2023-05-07T07:23:15;4.90;;;4.47;;
16543;SDS011;8384;47.996;7.786;2023-05-07T07:25:41;5.00;;;4.60;;
16543;SDS011;8384;47.996;7.786;2023-05-07T07:28:06;4.93;;;4.50;;
16543;SDS011;8384;47.996;7.786;2023-05-07T07:30:31;5.23;;;4.47;;
16543;SDS011;8384;47.996;7.786;2023-05-07T07:32:57;4.70;;;4.30;;
16543;SDS011;8384;47.996;7.786;2023-05-07T07:35:27;4.17;;;3.83;;
16543;SDS011;8384;47.996;7.786;2023-05-07T07:37:53;5.80;;;4.20;;
16543;SDS011;8384;47.996;7.786;2023-05-07T07:40:18;3.93;;;3.63;;
16543;SDS011;8384;47.996;7.786;2023-05-07T07:42:43;6.10;;;3.80;;
16543;SDS011;8384;47.996;7.786;2023-05-07T07:45:08;4.43;;;4.03;;
16543;SDS011;8384;47.996;7.786;2023-05-07T07:47:34;4.32;;;3.90;;
16543;SDS011;8384;47.996;7.786;2023-05-07T07:49:59;4.55;;;4.15;;
16543;SDS011;8384;47.996;7.786;2023-05-07T07:52:25;4.50;;;4.10;;
16543;SDS011;8384;47.996;7.786;2023-05-07T07:54:50;3.67;;;3.37;;
16543;SDS011;8384;47.996;7.786;2023-05-07T07:57:15;3.90;;;3.50;;
16543;SDS011;8384;47.996;7.786;2023-05-07T07:59:41;3.92;;;3.55;;
16543;SDS011;8384;47.996;7.786;2023-05-07T08:02:08;5.68;;;3.70;;
16543;SDS011;8384;47.996;7.786;2023-05-07T08:04:33;3.90;;;3.60;;
16543;SDS011;8384;47.996;7.786;2023-05-07T08:06:58;4.37;;;3.53;;
16543;SDS011;8384;47.996;7.786;2023-05-07T08:09:23;4.40;;;3.67;;
16543;SDS011;8384;47.996;7.786;2023-05-07T08:11:49;3.97;;;3.60;;
16543;SDS011;8384;47.996;7.786;2023-05-07T08:14:14;4.38;;;3.45;;
16543;SDS011;8384;47.996;7.786;2023-05-07T08:16:40;3.67;;;3.38;;
16543;SDS011;8384;47.996;7.786;2023-05-07T08:19:06;4.83;;;3.53;;
16543;SDS011;8384;47.996;7.786;2023-05-07T08:21:31;4.80;;;3.67;;
16543;SDS011;8384;47.996;7.786;2023-05-07T08:23:56;3.30;;;3.10;;
16543;SDS011;8384;47.996;7.786;2023-05-07T08:26:22;4.10;;;3.70;;
16543;SDS011;8384;47.996;7.786;2023-05-07T08:28:47;3.87;;;3.40;;
16543;SDS011;8384;47.996;7.786;2023-05-07T08:31:12;3.57;;;3.27;;
16543;SDS011;8384;47.996;7.786;2023-05-07T08:33:37;4.20;;;3.50;;
16543;SDS011;8384;47.996;7.786;2023-05-07T08:36:03;4.17;;;3.77;;
16543;SDS011;8384;47.996;7.786;2023-05-07T08:38:29;4.10;;;3.70;;
16543;SDS011;8384;47.996;7.786;2023-05-07T08:40:55;4.80;;;4.50;;
16543;SDS011;8384;47.996;7.786;2023-05-07T08:43:20;5.00;;;4.60;;
16543;SDS011;8384;47.996;7.786;2023-05-07T08:45:47;5.90;;;5.00;;
16543;SDS011;8384;47.996;7.786;2023-05-07T08:48:15;5.70;;;4.82;;
16543;SDS011;8384;47.996;7.786;2023-05-07T08:50:42;5.22;;;4.72;;
16543;SDS011;8384;47.996;7.786;2023-05-07T08:53:07;5.50;;;5.00;;
16543;SDS011;8384;47.996;7.786;2023-05-07T08:55:32;6.30;;;5.70;;
16543;SDS011;8384;47.996;7.786;2023-05-07T08:57:58;5.57;;;5.07;;
16543;SDS011;8384;47.996;7.786;2023-05-07T09:00:24;6.00;;;5.47;;
16543;SDS011;8384;47.996;7.786;2023-05-07T09:02:50;5.43;;;4.93;;
16543;SDS011;8384;47.996;7.786;2023-05-07T09:05:15;6.03;;;5.43;;
16543;SDS011;8384;47.996;7.786;2023-05-07T09:07:40;5.20;;;4.80;;
16543;SDS011;8384;47.996;7.786;2023-05-07T09:10:06;5.57;;;5.17;;
16543;SDS011;8384;47.996;7.786;2023-05-07T09:12:32;5.00;;;4.60;;
16543;SDS011;8384;47.996;7.786;2023-05-07T09:14:58;4.30;;;3.90;;
16543;SDS011;8384;47.996;7.786;2023-05-07T09:17:24;5.00;;;3.88;;
16543;SDS011;8384;47.996;7.786;2023-05-07T09:19:49;4.20;;;3.80;;
16543;SDS011;8384;47.996;7.786;2023-05-07T09:22:15;4.88;;;4.35;;
16543;SDS011;8384;47.996;7.786;2023-05-07T09:24:40;5.35;;;4.85;;
16543;SDS011;8384;47.996;7.786;2023-05-07T09:27:06;5.70;;;4.90;;
16543;SDS011;8384;47.996;7.786;2023-05-07T09:29:33;5.30;;;4.68;;
16543;SDS011;8384;47.996;7.786;2023-05-07T09:32:06;5.20;;;4.63;;
16543;SDS011;8384;47.996;7.786;2023-05-07T09:34:33;4.22;;;3.83;;
16543;SDS011;8384;47.996;7.786;2023-05-07T09:37:00;4.60;;;4.20;;
16543;SDS011;8384;47.996;7.786;2023-05-07T09:40:03;4.10;;;3.67;;
16543;SDS011;8384;47.996;7.786;2023-05-07T09:42:24;4.13;;;3.60;;
16543;SDS011;8384;47.996;7.786;2023-05-07T09:44:51;4.18;;;3.78;;
16543;SDS011;8384;47.996;7.786;2023-05-07T09:47:18;4.40;;;4.00;;
16543;SDS011;8384;47.996;7.786;2023-05-07T09:49:46;4.20;;;3.80;;
16543;SDS011;8384;47.996;7.786;2023-05-07T09:52:13;4.40;;;3.95;;
16543;SDS011;8384;47.996;7.786;2023-05-07T09:54:39;5.03;;;4.60;;
16543;SDS011;8384;47.996;7.786;2023-05-07T09:57:07;4.68;;;4.20;;
16543;SDS011;8384;47.996;7.786;2023-05-07T09:59:36;4.50;;;4.00;;
16543;SDS011;8384;47.996;7.786;2023-05-07T10:02:03;4.93;;;3.38;;
16543;SDS011;8384;47.996;7.786;2023-05-07T10:04:29;4.45;;;3.28;;
16543;SDS011;8384;47.996;7.786;2023-05-07T10:06:55;3.85;;;3.20;;
16543;SDS011;8384;47.996;7.786;2023-05-07T10:09:21;3.37;;;3.07;;
16543;SDS011;8384;47.996;7.786;2023-05-07T10:11:51;3.10;;;2.90;;
16543;SDS011;8384;47.996;7.786;2023-05-07T10:14:16;3.45;;;3.15;;
16543;SDS011;8384;47.996;7.786;2023-05-07T10:16:42;3.60;;;3.17;;
16543;SDS011;8384;47.996;7.786;2023-05-07T10:19:08;3.60;;;3.30;;
16543;SDS011;8384;47.996;7.786;2023-05-07T10:21:37;3.90;;;3.50;;
16543;SDS011;8384;47.996;7.786;2023-05-07T10:24:15;4.13;;;3.30;;
16543;SDS011;8384;47.996;7.786;2023-05-07T10:26:47;4.75;;;3.35;;
16543;SDS011;8384;47.996;7.786;2023-05-07T10:34:35;5.05;;;4.10;;
16543;SDS011;8384;47.996;7.786;2023-05-07T10:37:02;4.70;;;4.30;;
16543;SDS011;8384;47.996;7.786;2023-05-07T10:39:28;5.00;;;4.60;;
16543;SDS011;8384;47.996;7.786;2023-05-07T10:41:54;5.43;;;4.93;;
16543;SDS011;8384;47.996;7.786;2023-05-07T10:44:29;5.70;;;5.20;;
16543;SDS011;8384;47.996;7.786;2023-05-07T10:47:04;5.43;;;4.95;;
16543;SDS011;8384;47.996;7.786;2023-05-07T10:49:29;5.25;;;4.80;;
16543;SDS011;8384;47.996;7.786;2023-05-07T10:52:14;5.30;;;4.80;;
16543;SDS011;8384;47.996;7.786;2023-05-07T10:54:40;5.30;;;4.90;;
16543;SDS011;8384;47.996;7.786;2023-05-07T10:59:53;5.18;;;4.80;;
16543;SDS011;8384;47.996;7.786;2023-05-07T11:02:19;5.17;;;4.60;;
16543;SDS011;8384;47.996;7.786;2023-05-07T11:04:45;5.47;;;4.97;;
16543;SDS011;8384;47.996;7.786;2023-05-07T11:07:30;5.90;;;5.40;;
16543;SDS011;8384;47.996;7.786;2023-05-07T11:09:56;5.60;;;5.10;;
16543;SDS011;8384;47.996;7.786;2023-05-07T11:15:00;5.00;;;4.57;;
16543;SDS011;8384;47.996;7.786;2023-05-07T11:17:29;5.00;;;4.50;;
16543;SDS011;8384;47.996;7.786;2023-05-07T11:19:59;4.88;;;4.32;;
16543;SDS011;8384;47.996;7.786;2023-05-07T11:24:59;4.60;;;4.20;;
16543;SDS011;8384;47.996;7.786;2023-05-07T11:27:25;4.15;;;3.85;;
16543;SDS011;8384;47.996;7.786;2023-05-07T11:29:51;4.57;;;4.07;;
16543;SDS011;8384;47.996;7.786;2023-05-07T11:32:23;3.95;;;3.65;;
16543;SDS011;8384;47.996;7.786;2023-05-07T11:34:52;3.80;;;3.50;;
16543;SDS011;8384;47.996;7.786;2023-05-07T11:37:23;3.60;;;3.30;;
16543;SDS011;8384;47.996;7.786;2023-05-07T11:39:49;3.63;;;3.20;;
16543;SDS011;8384;47.996;7.786;2023-05-07T11:42:35;3.80;;;3.50;;
16543;SDS011;8384;47.996;7.786;2023-05-07T11:45:05;3.45;;;3.15;;
16543;SDS011;8384;47.996;7.786;2023-05-07T11:47:32;3.75;;;3.40;;
16543;SDS011;8384;47.996;7.786;2023-05-07T11:50:02;3.80;;;3.33;;
16543;SDS011;8384;47.996;7.786;2023-05-07T11:52:32;3.20;;;2.90;;
16543;SDS011;8384;47.996;7.786;2023-05-07T11:54:58;4.60;;;3.20;;
16543;SDS011;8384;47.996;7.786;2023-05-07T11:57:28;6.38;;;5.82;;
16543;SDS011;8384;47.996;7.786;2023-05-07T11:59:54;5.73;;;5.23;;
16543;SDS011;8384;47.996;7.786;2023-05-07T12:02:23;4.25;;;3.60;;
16543;SDS011;8384;47.996;7.786;2023-05-07T12:04:50;3.70;;;3.40;;
16543;SDS011;8384;47.996;7.786;2023-05-07T12:07:15;4.00;;;3.30;;
16543;SDS011;8384;47.996;7.786;2023-05-07T12:09:41;3.70;;;3.40;;
16543;SDS011;8384;47.996;7.786;2023-05-07T12:12:07;4.05;;;3.63;;
16543;SDS011;8384;47.996;7.786;2023-05-07T12:14:37;4.40;;;3.83;;
16543;SDS011;8384;47.996;7.786;2023-05-07T12:17:04;2.95;;;2.75;;
16543;SDS011;8384;47.996;7.786;2023-05-07T12:19:30;3.40;;;3.10;;
16543;SDS011;8384;47.996;7.786;2023-05-07T12:21:56;4.53;;;4.13;;
16543;SDS011;8384;47.996;7.786;2023-05-07T12:24:22;4.10;;;3.70;;
16543;SDS011;8384;47.996;7.786;2023-05-07T12:26:48;3.50;;;3.20;;
16543;SDS011;8384;47.996;7.786;2023-05-07T12:29:13;4.38;;;3.97;;
16543;SDS011;8384;47.996;7.786;2023-05-07T12:31:42;4.30;;;3.90;;
16543;SDS011;8384;47.996;7.786;2023-05-07T12:34:08;4.30;;;3.90;;
16543;SDS011;8384;47.996;7.786;2023-05-07T12:36:37;4.80;;;4.40;;
16543;SDS011;8384;47.996;7.786;2023-05-07T12:39:04;4.90;;;4.50;;
16543;SDS011;8384;47.996;7.786;2023-05-07T12:41:30;4.10;;;3.78;;
16543;SDS011;8384;47.996;7.786;2023-05-07T12:43:56;3.87;;;3.57;;
16543;SDS011;8384;47.996;7.786;2023-05-07T12:46:22;3.75;;;3.40;;
16543;SDS011;8384;47.996;7.786;2023-05-07T12:48:48;4.10;;;3.70;;
16543;SDS011;8384;47.996;7.786;2023-05-07T12:51:13;4.40;;;4.00;;
16543;SDS011;8384;47.996;7.786;2023-05-07T12:53:40;3.15;;;2.92;;
16543;SDS011;8384;47.996;7.786;2023-05-07T12:56:09;3.50;;;3.20;;
16543;SDS011;8384;47.996;7.786;2023-05-07T12:58:35;3.95;;;3.55;;
16543;SDS011;8384;47.996;7.786;2023-05-07T13:01:01;4.15;;;3.85;;
16543;SDS011;8384;47.996;7.786;2023-05-07T13:03:36;4.60;;;4.20;;
16543;SDS011;8384;47.996;7.786;2023-05-07T13:06:03;4.45;;;4.05;;
16543;SDS011;8384;47.996;7.786;2023-05-07T13:08:31;4.70;;;4.30;;
16543;SDS011;8384;47.996;7.786;2023-05-07T13:10:59;5.28;;;4.88;;
16543;SDS011;8384;47.996;7.786;2023-05-07T13:13:32;4.60;;;4.20;;
16543;SDS011;8384;47.996;7.786;2023-05-07T13:15:58;5.07;;;4.78;;
16543;SDS011;8384;47.996;7.786;2023-05-07T13:18:25;4.93;;;4.50;;
16543;SDS011;8384;47.996;7.786;2023-05-07T13:20:51;5.72;;;4.40;;
16543;SDS011;8384;47.996;7.786;2023-05-07T13:23:17;4.70;;;4.30;;
16543;SDS011;8384;47.996;7.786;2023-05-07T13:25:42;4.40;;;4.10;;
16543;SDS011;8384;47.996;7.786;2023-05-07T13:28:08;4.43;;;4.03;;
16543;SDS011;8384;47.996;7.786;2023-05-07T13:30:33;4.40;;;4.10;;
16543;SDS011;8384;47.996;7.786;2023-05-07T13:32:58;4.93;;;4.07;;
16543;SDS011;8384;47.996;7.786;2023-05-07T13:35:24;4.17;;;3.80;;
16543;SDS011;8384;47.996;7.786;2023-05-07T13:37:49;4.30;;;4.00;;
16543;SDS011;8384;47.996;7.786;2023-05-07T13:40:15;3.90;;;3.60;;
16543;SDS011;8384;47.996;7.786;2023-05-07T13:42:40;3.10;;;2.80;;
16543;SDS011;8384;47.996;7.786;2023-05-07T13:45:06;3.30;;;3.00;;
16543;SDS011;8384;47.996;7.786;2023-05-07T13:47:32;4.00;;;3.70;;
16543;SDS011;8384;47.996;7.786;2023-05-07T13:49:57;4.10;;;3.70;;
16543;SDS011;8384;47.996;7.786;2023-05-07T13:52:22;3.80;;;3.50;;
16543;SDS011;8384;47.996;7.786;2023-05-07T13:54:47;4.32;;;3.92;;
16543;SDS011;8384;47.996;7.786;2023-05-07T13:57:13;4.57;;;4.00;;
16543;SDS011;8384;47.996;7.786;2023-05-07T13:59:38;4.40;;;4.10;;
16543;SDS011;8384;47.996;7.786;2023-05-07T14:02:03;4.80;;;4.40;;
16543;SDS011;8384;47.996;7.786;2023-05-07T14:04:29;4.23;;;3.90;;
16543;SDS011;8384;47.996;7.786;2023-05-07T14:06:55;4.35;;;4.05;;
16543;SDS011;8384;47.996;7.786;2023-05-07T14:09:21;4.50;;;4.10;;
16543;SDS011;8384;47.996;7.786;2023-05-07T14:11:46;4.00;;;3.70;;
16543;SDS011;8384;47.996;7.786;2023-05-07T14:14:16;4.28;;;3.88;;
16543;SDS011;8384;47.996;7.786;2023-05-07T14:16:41;3.90;;;3.30;;
16543;SDS011;8384;47.996;7.786;2023-05-07T14:19:06;2.43;;;2.07;;
16543;SDS011;8384;47.996;7.786;2023-05-07T14:21:31;1.70;;;1.40;;
16543;SDS011;8384;47.996;7.786;2023-05-07T14:23:57;1.80;;;1.40;;
16543;SDS011;8384;47.996;7.786;2023-05-07T14:26:22;1.45;;;1.35;;
16543;SDS011;8384;47.996;7.786;2023-05-07T14:28:48;1.83;;;1.20;;
16543;SDS011;8384;47.996;7.786;2023-05-07T14:31:13;2.05;;;1.10;;
16543;SDS011;8384;47.996;7.786;2023-05-07T14:33:39;1.93;;;1.43;;
16543;SDS011;8384;47.996;7.786;2023-05-07T14:36:04;1.40;;;1.30;;
16543;SDS011;8384;47.996;7.786;2023-05-07T14:38:30;1.10;;;1.00;;
16543;SDS011;8384;47.996;7.786;2023-05-07T14:40:57;0.80;;;0.80;;
16543;SDS011;8384;47.996;7.786;2023-05-07T14:43:23;1.00;;;0.90;;
16543;SDS011;8384;47.996;7.786;2023-05-07T14:45:48;1.10;;;1.00;;
16543;SDS011;8384;47.996;7.786;2023-05-07T14:48:13;1.20;;;1.00;;
16543;SDS011;8384;47.996;7.786;2023-05-07T14:50:40;1.27;;;1.17;;
16543;SDS011;8384;47.996;7.786;2023-05-07T14:53:06;1.20;;;1.10;;
16543;SDS011;8384;47.996;7.786;2023-05-07T14:55:31;1.23;;;0.93;;
16543;SDS011;8384;47.996;7.786;2023-05-07T14:57:56;1.33;;;1.00;;
16543;SDS011;8384;47.996;7.786;2023-05-07T15:00:22;1.60;;;1.10;;
16543;SDS011;8384;47.996;7.786;2023-05-07T15:02:47;2.00;;;1.30;;
16543;SDS011;8384;47.996;7.786;2023-05-07T15:05:12;1.50;;;1.30;;
16543;SDS011;8384;47.996;7.786;2023-05-07T15:07:39;1.23;;;1.10;;
16543;SDS011;8384;47.996;7.786;2023-05-07T15:10:04;1.67;;;1.30;;